Time;durP1;ratioP1;P1;durP2;ratioP2;P2;SDS_P1;SDS_P2;PMS_P1;PMS_P2;Temp;Humidity;BMP_temperature;BMP_pressure;BME280_temperature;BME280_humidity;BME280_pressure;Samples;Min_cycle;Max_cycle;Signal;HPM_P1;HPM_P2
2021/06/14 00:01:38;;;;;;;19.60;13.82;;;17.90;69.40;;;;;;5048171;28;20040;-73
2021/06/14 00:04:04;;;;;;;22.55;15.57;;;17.80;69.60;;;;;;5046192;28;20136;-74
2021/06/14 00:06:30;;;;;;;21.05;15.23;;;17.80;69.90;;;;;;5048189;28;20112;-73
2021/06/14 00:08:56;;;;;;;20.98;13.80;;;17.70;70.10;;;;;;5046929;28;20059;-74
2021/06/14 00:11:22;;;;;;;20.33;14.15;;;17.70;70.40;;;;;;5044641;28;20049;-78
2021/06/14 00:13:47;;;;;;;20.20;14.18;;;17.60;70.60;;;;;;5045280;28;20037;-73
2021/06/14 00:16:13;;;;;;;21.45;15.07;;;17.60;70.70;;;;;;5047125;28;20436;-74
2021/06/14 00:18:39;;;;;;;20.20;14.25;;;17.60;70.80;;;;;;5048130;28;20048;-74
2021/06/14 00:21:08;;;;;;;19.33;14.32;;;17.60;70.80;;;;;;5046870;28;20449;-77
2021/06/14 00:23:34;;;;;;;21.25;14.90;;;17.60;70.80;;;;;;5047343;28;20041;-73
2021/06/14 00:26:03;;;;;;;20.95;15.20;;;17.60;70.80;;;;;;5048140;28;20029;-74
2021/06/14 00:28:29;;;;;;;24.27;15.95;;;17.50;70.90;;;;;;5045094;28;20060;-73
2021/06/14 00:30:55;;;;;;;20.02;14.43;;;17.40;71.20;;;;;;5046157;28;20033;-74
2021/06/14 00:33:22;;;;;;;19.38;14.15;;;17.40;71.30;;;;;;5045365;28;20048;-73
2021/06/14 00:35:48;;;;;;;19.42;14.13;;;17.40;71.50;;;;;;5048211;28;20093;-74
2021/06/14 00:38:15;;;;;;;21.63;15.18;;;17.40;71.20;;;;;;5043060;28;20511;-73
2021/06/14 00:40:42;;;;;;;19.90;14.82;;;17.30;71.30;;;;;;5043734;28;20029;-73
2021/06/14 00:43:09;;;;;;;21.52;15.40;;;17.30;71.30;;;;;;5043948;28;20041;-75
2021/06/14 00:45:38;;;;;;;23.73;16.40;;;17.30;71.30;;;;;;5050466;28;20036;-73
2021/06/14 00:48:05;;;;;;;22.13;15.57;;;17.20;71.60;;;;;;5047881;28;20449;-73
2021/06/14 00:50:38;;;;;;;25.58;17.33;;;17.20;71.80;;;;;;5044723;28;20033;-72
2021/06/14 00:53:10;;;;;;;25.05;16.90;;;17.20;71.90;;;;;;5048525;28;20037;-73
2021/06/14 00:55:36;;;;;;;24.17;16.75;;;17.10;72.00;;;;;;5046251;28;20025;-78
2021/06/14 00:58:03;;;;;;;25.05;16.73;;;17.00;72.30;;;;;;5044880;28;20357;-76
2021/06/14 01:00:29;;;;;;;23.38;16.17;;;17.00;72.40;;;;;;5045559;28;20443;-73
2021/06/14 01:02:55;;;;;;;25.13;15.40;;;17.00;72.60;;;;;;5046149;28;20044;-73
2021/06/14 01:05:22;;;;;;;21.83;16.60;;;16.90;72.80;;;;;;5045899;28;20047;-73
2021/06/14 01:07:48;;;;;;;21.77;16.10;;;16.90;73.00;;;;;;5047624;28;20033;-74
2021/06/14 01:10:15;;;;;;;22.88;17.40;;;16.80;73.10;;;;;;5042315;28;20091;-74
2021/06/14 01:13:09;;;;;;;23.73;16.10;;;16.80;73.40;;;;;;5045784;28;20037;-73
2021/06/14 01:16:02;;;;;;;22.23;17.77;;;16.80;73.60;;;;;;5046330;28;20060;-76
2021/06/14 01:18:59;;;;;;;21.80;16.67;;;16.70;73.70;;;;;;5045887;28;20032;-73
2021/06/14 01:21:41;;;;;;;24.40;18.25;;;16.70;73.80;;;;;;5042826;28;20455;-76
2021/06/14 01:24:35;;;;;;;22.85;16.88;;;16.70;73.90;;;;;;5043283;28;20492;-75
2021/06/14 01:27:06;;;;;;;24.57;17.60;;;16.70;73.90;;;;;;5042381;28;20025;-78
2021/06/14 01:29:32;;;;;;;24.10;17.65;;;16.60;74.00;;;;;;5045551;28;20064;-74
2021/06/14 01:32:00;;;;;;;24.23;17.63;;;16.60;73.90;;;;;;5047713;28;20044;-73
2021/06/14 01:34:28;;;;;;;23.38;17.75;;;16.60;74.20;;;;;;5045457;28;20706;-73
2021/06/14 01:36:58;;;;;;;26.35;17.75;;;16.50;74.10;;;;;;5044407;28;20424;-73
2021/06/14 01:39:26;;;;;;;24.27;17.92;;;16.50;74.30;;;;;;5044771;28;20924;-74
2021/06/14 01:41:54;;;;;;;23.92;16.45;;;16.50;74.30;;;;;;5045535;28;20041;-74
2021/06/14 01:44:22;;;;;;;22.05;16.42;;;16.50;74.50;;;;;;5045268;28;20460;-74
2021/06/14 01:46:50;;;;;;;19.85;15.95;;;16.50;74.60;;;;;;5047928;28;20025;-76
2021/06/14 01:49:17;;;;;;;24.58;17.05;;;16.50;74.90;;;;;;5044655;28;20025;-74
2021/06/14 01:51:43;;;;;;;21.77;16.08;;;16.50;74.80;;;;;;5045903;28;20029;-73
2021/06/14 01:54:10;;;;;;;23.02;16.50;;;16.50;74.90;;;;;;5046053;28;20040;-76
2021/06/14 01:56:36;;;;;;;22.88;17.00;;;16.40;74.80;;;;;;5045238;28;20116;-74
2021/06/14 01:59:04;;;;;;;21.33;16.15;;;16.40;75.00;;;;;;5046097;28;20029;-73
2021/06/14 02:01:32;;;;;;;22.60;16.20;;;16.30;75.20;;;;;;5044734;28;20059;-74
2021/06/14 02:04:00;;;;;;;21.60;15.57;;;16.30;75.30;;;;;;5044601;28;20128;-74
2021/06/14 02:06:38;;;;;;;22.58;15.52;;;16.20;75.30;;;;;;5044804;28;20021;-74
2021/06/14 02:09:08;;;;;;;20.88;15.38;;;16.20;75.20;;;;;;5045850;28;20465;-74
2021/06/14 02:11:35;;;;;;;20.10;15.68;;;16.20;75.30;;;;;;5044431;28;20036;-74
2021/06/14 02:14:01;;;;;;;20.63;15.57;;;16.20;75.40;;;;;;5044875;28;20033;-74
2021/06/14 02:16:28;;;;;;;19.60;15.45;;;16.20;75.50;;;;;;5046280;28;20168;-74
2021/06/14 02:18:55;;;;;;;20.70;14.75;;;16.10;75.50;;;;;;5044910;28;20033;-73
2021/06/14 02:21:21;;;;;;;19.85;15.02;;;16.20;75.50;;;;;;5044240;28;20120;-75
2021/06/14 02:23:46;;;;;;;22.40;15.88;;;16.10;75.30;;;;;;5043244;28;20104;-75
2021/06/14 02:26:12;;;;;;;18.20;15.43;;;16.10;75.40;;;;;;5045641;28;20373;-73
2021/06/14 02:28:37;;;;;;;18.40;15.77;;;16.00;75.40;;;;;;5043471;28;20087;-75
2021/06/14 02:31:04;;;;;;;23.33;16.20;;;15.90;75.50;;;;;;5047392;28;20487;-75
2021/06/14 02:33:30;;;;;;;22.05;16.15;;;15.90;75.70;;;;;;5045814;28;20116;-76
2021/06/14 02:35:56;;;;;;;24.23;17.73;;;15.80;75.70;;;;;;5043535;28;20129;-75
2021/06/14 02:38:24;;;;;;;22.20;16.88;;;15.80;76.00;;;;;;5045131;28;20036;-77
2021/06/14 02:40:50;;;;;;;21.55;16.63;;;15.70;76.30;;;;;;5043785;28;20424;-73
2021/06/14 02:43:16;;;;;;;20.83;15.57;;;15.70;76.50;;;;;;5045090;28;20037;-74
2021/06/14 02:45:43;;;;;;;19.60;15.77;;;15.60;76.40;;;;;;5044945;28;20033;-73
2021/06/14 02:48:09;;;;;;;22.73;16.27;;;15.60;76.40;;;;;;5046247;28;20025;-79
2021/06/14 02:50:36;;;;;;;20.95;16.70;;;15.60;76.40;;;;;;5043577;28;20052;-73
2021/06/14 02:53:06;;;;;;;22.73;16.77;;;15.60;76.50;;;;;;5044979;28;20037;-73
2021/06/14 02:55:39;;;;;;;22.27;17.08;;;15.50;76.60;;;;;;5045288;28;20021;-73
2021/06/14 02:58:06;;;;;;;24.45;16.67;;;15.50;76.80;;;;;;5045285;28;20025;-75
2021/06/14 03:00:32;;;;;;;21.75;16.52;;;15.40;77.00;;;;;;5043312;28;20080;-73
2021/06/14 03:03:00;;;;;;;22.15;17.08;;;15.40;77.20;;;;;;5046355;28;20137;-73
2021/06/14 03:05:28;;;;;;;21.10;17.30;;;15.30;77.30;;;;;;5044405;28;20079;-73
2021/06/14 03:07:58;;;;;;;21.27;16.60;;;15.40;77.50;;;;;;5046212;28;20052;-73
2021/06/14 03:10:24;;;;;;;21.48;17.73;;;15.40;77.60;;;;;;5040167;28;20057;-74
2021/06/14 03:12:54;;;;;;;25.10;17.85;;;15.30;77.90;;;;;;5044844;28;20069;-73
2021/06/14 03:15:20;;;;;;;26.80;17.42;;;15.30;78.20;;;;;;5041210;28;20357;-77
2021/06/14 03:17:46;;;;;;;23.90;17.25;;;15.40;78.30;;;;;;5041486;28;20037;-74
2021/06/14 03:20:13;;;;;;;19.73;16.27;;;15.30;78.30;;;;;;5045492;28;20072;-75
2021/06/14 03:22:39;;;;;;;21.40;17.73;;;15.30;78.30;;;;;;5046301;28;20147;-74
2021/06/14 03:25:06;;;;;;;23.17;17.45;;;15.30;78.40;;;;;;5047363;28;20476;-73
2021/06/14 03:27:33;;;;;;;25.52;20.05;;;15.30;78.50;;;;;;5049555;28;20025;-73
2021/06/14 03:29:59;;;;;;;23.60;17.83;;;15.30;78.20;;;;;;5049644;28;20098;-77
2021/06/14 03:32:26;;;;;;;22.67;17.98;;;15.20;78.40;;;;;;5046559;28;20047;-73
2021/06/14 03:34:53;;;;;;;21.63;17.05;;;15.20;78.40;;;;;;5044750;28;20063;-74
2021/06/14 03:37:19;;;;;;;25.58;16.92;;;15.20;78.40;;;;;;5047130;28;20057;-74
2021/06/14 03:39:45;;;;;;;22.25;16.90;;;15.20;78.40;;;;;;5044799;28;20488;-77
2021/06/14 03:42:18;;;;;;;21.73;16.17;;;15.20;78.40;;;;;;5047406;28;20045;-73
2021/06/14 03:44:44;;;;;;;22.00;17.67;;;15.20;78.40;;;;;;5047654;28;20552;-77
2021/06/14 03:47:09;;;;;;;23.30;17.70;;;15.30;78.30;;;;;;5048844;28;20043;-78
2021/06/14 03:49:35;;;;;;;19.95;16.25;;;15.30;78.10;;;;;;5050543;28;20036;-73
2021/06/14 03:52:01;;;;;;;28.00;19.10;;;15.30;77.90;;;;;;5045964;28;20487;-74
2021/06/14 03:54:26;;;;;;;24.95;17.65;;;15.30;77.80;;;;;;5050424;28;20051;-74
2021/06/14 03:56:52;;;;;;;22.40;16.58;;;15.30;77.80;;;;;;5046775;28;20065;-76
2021/06/14 03:59:18;;;;;;;24.45;18.23;;;15.30;77.90;;;;;;5048705;28;20075;-77
2021/06/14 04:01:43;;;;;;;25.30;18.88;;;15.30;78.20;;;;;;5046803;28;20049;-76
2021/06/14 04:06:41;;;;;;;23.08;16.77;;;15.40;78.20;;;;;;5049295;28;20041;-73
2021/06/14 04:09:07;;;;;;;20.55;16.85;;;15.40;78.10;;;;;;5046307;28;20086;-73
2021/06/14 04:11:32;;;;;;;23.52;18.83;;;15.40;77.90;;;;;;5047182;28;20037;-74
2021/06/14 04:13:58;;;;;;;21.33;17.20;;;15.50;77.70;;;;;;5046050;28;20461;-73
2021/06/14 04:16:24;;;;;;;22.17;17.67;;;15.60;77.70;;;;;;5043758;28;20481;-76
2021/06/14 04:18:50;;;;;;;23.05;19.02;;;15.60;77.70;;;;;;5044284;28;20029;-75
2021/06/14 04:21:16;;;;;;;22.30;17.55;;;15.60;78.10;;;;;;5039582;28;20472;-75
2021/06/14 04:23:43;;;;;;;24.80;18.88;;;15.60;78.30;;;;;;5045459;28;20037;-73
2021/06/14 04:26:10;;;;;;;26.45;19.80;;;15.60;78.40;;;;;;5045778;28;20119;-76
2021/06/14 04:28:35;;;;;;;22.75;17.55;;;15.60;78.50;;;;;;5053050;28;20120;-79
2021/06/14 04:31:01;;;;;;;21.85;17.80;;;15.60;78.40;;;;;;5055709;28;20139;-73
2021/06/14 04:33:27;;;;;;;25.17;19.27;;;15.70;78.40;;;;;;5052906;28;20463;-75
2021/06/14 04:35:52;;;;;;;25.25;19.55;;;15.70;78.30;;;;;;5044275;28;20479;-74
2021/06/14 04:38:19;;;;;;;23.60;19.52;;;15.60;78.50;;;;;;5051059;28;20028;-74
2021/06/14 04:40:45;;;;;;;23.48;19.00;;;15.70;78.70;;;;;;5044235;28;20455;-75
2021/06/14 04:43:11;;;;;;;24.55;19.52;;;15.70;79.00;;;;;;5048645;28;20046;-76
2021/06/14 04:45:37;;;;;;;20.58;17.80;;;15.80;79.10;;;;;;5043911;28;20049;-74
2021/06/14 04:48:03;;;;;;;29.27;21.33;;;15.80;79.00;;;;;;5042585;28;20029;-77
2021/06/14 04:50:29;;;;;;;26.27;20.35;;;15.90;79.10;;;;;;5042095;28;20312;-73
2021/06/14 04:52:55;;;;;;;26.85;20.60;;;15.90;79.40;;;;;;5043898;28;20369;-73
2021/06/14 04:55:21;;;;;;;21.58;17.70;;;16.10;79.20;;;;;;5037256;28;20120;-75
2021/06/14 04:57:47;;;;;;;27.42;20.13;;;16.10;78.90;;;;;;5039566;28;20128;-73
2021/06/14 05:00:13;;;;;;;22.95;17.95;;;16.20;78.50;;;;;;5042350;28;20071;-73
2021/06/14 05:02:38;;;;;;;23.02;18.90;;;16.30;78.30;;;;;;5043110;28;20033;-73
2021/06/14 05:05:06;;;;;;;24.75;19.40;;;16.50;78.00;;;;;;5039898;28;20047;-73
2021/06/14 05:07:31;;;;;;;22.08;17.45;;;16.80;78.10;;;;;;5039115;28;20051;-73
2021/06/14 05:09:57;;;;;;;23.50;16.88;;;18.20;75.50;;;;;;5042893;28;20485;-74
2021/06/14 05:12:24;;;;;;;17.77;14.75;;;20.10;68.60;;;;;;5041636;28;20037;-73
2021/06/14 05:14:49;;;;;;;17.55;13.65;;;21.70;62.20;;;;;;5040919;28;20044;-73
2021/06/14 05:17:17;;;;;;;17.35;13.07;;;23.40;57.30;;;;;;5037719;28;20030;-76
2021/06/14 05:19:43;;;;;;;19.67;13.45;;;24.60;53.20;;;;;;5046932;28;20043;-76
2021/06/14 05:22:09;;;;;;;17.45;13.57;;;25.60;49.50;;;;;;5033477;28;20029;-75
2021/06/14 05:24:35;;;;;;;17.33;13.00;;;26.40;47.10;;;;;;5043783;28;20055;-75
2021/06/14 05:27:01;;;;;;;17.70;12.55;;;26.70;46.60;;;;;;5045044;28;20071;-79
2021/06/14 05:29:26;;;;;;;19.02;12.93;;;27.50;44.00;;;;;;5047201;28;20037;-76
2021/06/14 05:31:52;;;;;;;15.13;11.75;;;27.60;44.10;;;;;;5042747;28;20075;-75
2021/06/14 05:34:18;;;;;;;16.23;11.35;;;28.20;43.10;;;;;;5041342;28;20094;-76
2021/06/14 05:36:44;;;;;;;16.58;12.27;;;28.70;42.00;;;;;;5044504;28;20051;-74
2021/06/14 05:39:09;;;;;;;17.77;11.70;;;28.90;41.50;;;;;;5039227;28;20045;-72
2021/06/14 05:41:35;;;;;;;19.00;11.80;;;28.80;41.30;;;;;;5040624;28;20095;-69
2021/06/14 05:44:01;;;;;;;17.00;12.57;;;29.00;40.70;;;;;;5043255;28;20069;-71
2021/06/14 05:46:26;;;;;;;16.63;12.23;;;28.90;40.10;;;;;;5056602;28;20033;-71
2021/06/14 05:48:52;;;;;;;15.55;12.00;;;28.60;41.40;;;;;;5037680;28;20492;-74
2021/06/14 05:51:18;;;;;;;16.48;12.63;;;28.60;41.40;;;;;;5044650;28;20033;-71
2021/06/14 05:53:43;;;;;;;17.27;12.82;;;28.10;42.40;;;;;;5036149;28;20037;-70
2021/06/14 05:56:09;;;;;;;17.75;13.35;;;27.10;43.90;;;;;;5043303;28;20473;-73
2021/06/14 05:58:35;;;;;;;16.35;12.65;;;25.80;47.10;;;;;;5045755;28;20041;-71
2021/06/14 06:01:00;;;;;;;19.67;13.50;;;24.80;49.20;;;;;;5046127;28;20071;-72
2021/06/14 06:03:26;;;;;;;20.83;13.98;;;23.70;51.90;;;;;;5044967;28;20043;-70
2021/06/14 06:05:52;;;;;;;18.83;14.10;;;23.20;53.80;;;;;;5040295;28;20446;-70
2021/06/14 06:08:17;;;;;;;17.35;13.65;;;22.70;54.40;;;;;;5044397;28;20031;-72
2021/06/14 06:10:43;;;;;;;26.30;15.55;;;22.50;55.80;;;;;;5045009;28;20033;-72
2021/06/14 06:13:09;;;;;;;21.08;15.65;;;22.20;57.40;;;;;;5042401;28;20552;-71
2021/06/14 06:15:35;;;;;;;32.15;15.60;;;22.10;58.20;;;;;;5043245;28;20029;-71
2021/06/14 06:18:01;;;;;;;23.17;15.98;;;22.00;58.90;;;;;;5043139;28;20121;-72
2021/06/14 06:20:26;;;;;;;21.30;15.63;;;21.80;58.70;;;;;;5041363;28;20465;-71
2021/06/14 06:22:52;;;;;;;24.83;16.00;;;21.80;58.60;;;;;;5038944;28;20501;-71
2021/06/14 06:25:20;;;;;;;24.98;16.70;;;21.90;57.50;;;;;;5037432;28;20045;-75
2021/06/14 06:27:47;;;;;;;22.63;14.85;;;22.00;56.90;;;;;;5040883;28;20146;-71
2021/06/14 06:30:17;;;;;;;26.45;16.15;;;22.10;56.30;;;;;;5037615;28;20037;-72
2021/06/14 06:32:42;;;;;;;25.38;16.55;;;22.30;56.20;;;;;;5041173;28;20114;-71
2021/06/14 06:35:09;;;;;;;21.77;15.13;;;22.20;55.30;;;;;;5045835;28;20053;-72
2021/06/14 06:37:34;;;;;;;19.05;12.60;;;22.40;54.10;;;;;;5042199;28;20090;-71
2021/06/14 06:40:00;;;;;;;16.45;10.98;;;22.50;54.00;;;;;;5041863;28;20455;-71
2021/06/14 06:42:25;;;;;;;21.80;12.00;;;22.50;52.60;;;;;;5037413;28;20143;-71
2021/06/14 06:44:52;;;;;;;21.33;13.35;;;22.60;52.10;;;;;;5042387;28;20492;-73
2021/06/14 06:47:18;;;;;;;18.60;13.40;;;22.50;52.40;;;;;;5045342;28;20033;-74
2021/06/14 06:49:44;;;;;;;22.48;12.88;;;22.60;53.20;;;;;;5043032;28;20030;-71
2021/06/14 06:52:11;;;;;;;26.77;12.90;;;22.80;53.60;;;;;;5048099;28;20037;-74
2021/06/14 06:54:36;;;;;;;20.85;13.10;;;23.00;52.80;;;;;;5049686;28;20041;-73
2021/06/14 06:57:02;;;;;;;21.88;12.77;;;23.10;53.10;;;;;;5049465;28;20049;-72
2021/06/14 06:59:28;;;;;;;25.77;13.07;;;23.30;52.70;;;;;;5049997;28;20757;-73
2021/06/14 07:01:54;;;;;;;19.13;10.82;;;23.40;53.60;;;;;;5049149;28;20053;-72
2021/06/14 07:04:19;;;;;;;16.92;8.32;;;23.40;50.70;;;;;;5048714;28;20040;-73
2021/06/14 07:06:45;;;;;;;20.58;8.98;;;23.50;48.90;;;;;;5047110;28;20426;-73
2021/06/14 07:09:11;;;;;;;20.77;9.32;;;23.50;48.50;;;;;;5045717;28;20536;-69
2021/06/14 07:11:37;;;;;;;15.65;8.38;;;23.50;48.60;;;;;;5043805;28;20132;-69
2021/06/14 07:14:03;;;;;;;13.15;8.10;;;23.50;49.60;;;;;;5048632;28;20041;-69
2021/06/14 07:16:29;;;;;;;14.63;8.30;;;23.60;49.60;;;;;;5045836;28;20108;-69
2021/06/14 07:18:55;;;;;;;11.80;6.38;;;23.50;49.30;;;;;;5045037;28;20511;-70
2021/06/14 07:21:22;;;;;;;16.58;7.35;;;23.70;49.70;;;;;;5044241;28;20045;-69
2021/06/14 07:23:49;;;;;;;13.32;6.88;;;23.90;46.80;;;;;;5048147;28;20045;-71
2021/06/14 07:26:15;;;;;;;13.20;7.22;;;24.10;48.50;;;;;;5045225;28;20033;-69
2021/06/14 07:28:41;;;;;;;14.68;7.57;;;24.40;47.50;;;;;;5049175;28;20036;-69
2021/06/14 07:31:09;;;;;;;14.45;6.72;;;24.40;47.00;;;;;;5044157;28;20493;-68
2021/06/14 07:33:35;;;;;;;15.60;7.13;;;24.40;47.20;;;;;;5048273;28;20040;-70
2021/06/14 07:36:03;;;;;;;11.68;6.55;;;24.60;46.60;;;;;;5047246;28;20455;-70
2021/06/14 07:38:29;;;;;;;14.00;7.20;;;24.60;46.80;;;;;;5049825;28;20044;-71
2021/06/14 07:40:55;;;;;;;16.27;7.47;;;24.70;46.30;;;;;;5043472;28;20096;-68
2021/06/14 07:43:21;;;;;;;12.98;6.57;;;25.00;46.20;;;;;;5046018;28;20061;-70
2021/06/14 07:45:48;;;;;;;14.93;7.25;;;25.10;45.00;;;;;;5049619;28;20750;-68
2021/06/14 07:48:14;;;;;;;15.15;7.53;;;25.10;45.70;;;;;;5049300;28;20052;-69
2021/06/14 07:50:42;;;;;;;26.83;8.35;;;25.30;46.10;;;;;;5049297;28;20044;-68
2021/06/14 07:53:07;;;;;;;13.30;6.65;;;25.50;45.70;;;;;;5044224;28;20061;-69
2021/06/14 07:55:35;;;;;;;14.75;7.70;;;25.50;45.30;;;;;;5048750;28;20079;-68
2021/06/14 07:58:02;;;;;;;15.68;7.10;;;25.60;45.10;;;;;;5046713;28;20495;-70
2021/06/14 08:00:28;;;;;;;13.63;6.80;;;25.60;45.50;;;;;;5044783;28;20116;-68
2021/06/14 08:02:55;;;;;;;16.20;6.93;;;25.60;45.40;;;;;;5049895;28;20540;-70
2021/06/14 08:05:21;;;;;;;14.38;7.20;;;25.60;44.40;;;;;;5043942;28;20037;-69
2021/06/14 08:07:47;;;;;;;14.27;6.18;;;25.60;45.20;;;;;;5042113;28;20088;-70
2021/06/14 08:10:16;;;;;;;12.82;6.45;;;25.70;45.50;;;;;;5042765;28;20112;-68
2021/06/14 08:12:49;;;;;;;11.25;6.03;;;26.00;46.10;;;;;;5044085;28;20029;-69
2021/06/14 08:15:20;;;;;;;11.18;5.57;;;26.10;43.80;;;;;;5044468;28;20033;-70
2021/06/14 08:17:47;;;;;;;11.40;5.68;;;26.10;43.60;;;;;;5039787;28;20078;-69
2021/06/14 08:25:26;;;;;;;13.25;5.47;;;26.50;42.90;;;;;;5042166;28;20195;-69
2021/06/14 08:27:51;;;;;;;12.50;5.20;;;26.40;42.20;;;;;;5048394;28;20124;-68
2021/06/14 08:30:20;;;;;;;11.60;5.40;;;26.30;42.90;;;;;;5043806;28;20400;-69
2021/06/14 08:32:46;;;;;;;10.13;4.95;;;26.40;42.30;;;;;;5044158;28;20370;-66
2021/06/14 08:35:14;;;;;;;12.13;5.88;;;26.70;42.30;;;;;;5044332;28;20056;-71
2021/06/14 08:37:42;;;;;;;15.20;5.47;;;26.90;41.80;;;;;;5044978;28;20427;-70
2021/06/14 08:40:09;;;;;;;17.55;5.72;;;27.20;42.10;;;;;;5040361;28;20041;-69
2021/06/14 08:42:35;;;;;;;11.07;5.47;;;26.90;41.50;;;;;;5043712;28;20064;-68
2021/06/14 08:45:02;;;;;;;10.93;5.88;;;27.10;40.70;;;;;;5039808;28;20130;-70
2021/06/14 08:47:31;;;;;;;12.30;5.28;;;27.00;41.20;;;;;;5041247;28;20035;-69
2021/06/14 08:49:57;;;;;;;12.65;5.60;;;27.20;41.50;;;;;;5036387;28;20536;-69
2021/06/14 08:52:23;;;;;;;11.45;5.53;;;27.20;41.70;;;;;;5043424;28;20037;-69
2021/06/14 08:54:51;;;;;;;13.90;5.38;;;27.30;41.30;;;;;;5046000;28;20041;-69
2021/06/14 08:57:17;;;;;;;15.93;6.05;;;27.20;40.60;;;;;;5042296;28;20052;-69
2021/06/14 08:59:43;;;;;;;11.35;5.55;;;27.30;41.00;;;;;;5047252;28;20411;-69
2021/06/14 09:02:09;;;;;;;11.57;5.10;;;27.70;39.90;;;;;;5040128;28;20037;-69
2021/06/14 09:04:35;;;;;;;9.63;4.93;;;28.00;39.80;;;;;;5040084;28;20053;-72
2021/06/14 09:07:02;;;;;;;12.05;5.28;;;28.10;38.90;;;;;;5038623;28;20035;-71
2021/06/14 09:09:30;;;;;;;10.52;5.30;;;28.40;38.30;;;;;;5036922;28;20033;-70
2021/06/14 09:11:56;;;;;;;14.63;4.88;;;28.50;38.50;;;;;;5039960;28;20037;-73
2021/06/14 09:14:24;;;;;;;13.50;5.40;;;28.60;38.10;;;;;;5037673;28;20040;-69
2021/06/14 09:16:51;;;;;;;9.75;5.03;;;28.70;38.30;;;;;;5038420;28;20059;-69
2021/06/14 09:19:30;;;;;;;11.95;5.13;;;28.90;37.90;;;;;;5039279;28;20033;-69
2021/06/14 09:22:09;;;;;;;13.50;5.47;;;29.00;37.10;;;;;;5040124;28;20066;-69
2021/06/14 09:24:34;;;;;;;10.45;5.40;;;29.10;37.40;;;;;;5039200;28;20396;-71
2021/06/14 09:27:00;;;;;;;10.63;5.05;;;29.40;36.70;;;;;;5038892;28;20037;-70
2021/06/14 09:29:28;;;;;;;13.27;5.63;;;29.40;36.90;;;;;;5037550;28;20719;-69
2021/06/14 09:31:59;;;;;;;13.18;5.20;;;29.50;36.70;;;;;;5038434;28;20037;-71
2021/06/14 09:34:41;;;;;;;12.43;5.35;;;29.60;37.20;;;;;;5036477;28;20642;-72
2021/06/14 09:37:09;;;;;;;14.90;5.90;;;29.50;36.60;;;;;;5038563;28;20115;-69
2021/06/14 09:39:40;;;;;;;11.52;5.65;;;29.50;37.00;;;;;;5036832;28;20064;-70
2021/06/14 09:42:16;;;;;;;12.02;6.15;;;29.60;36.50;;;;;;5038110;28;20033;-70
2021/06/14 09:44:42;;;;;;;12.35;5.68;;;29.60;36.10;;;;;;5036073;28;20424;-70
2021/06/14 09:47:11;;;;;;;12.70;5.63;;;29.30;37.30;;;;;;5036576;28;20033;-70
2021/06/14 09:49:37;;;;;;;9.95;4.90;;;29.40;36.50;;;;;;5039295;28;20064;-69
2021/06/14 09:52:04;;;;;;;10.98;5.13;;;29.60;36.00;;;;;;5039008;28;20572;-73
2021/06/14 09:54:35;;;;;;;15.68;5.68;;;29.60;36.30;;;;;;5038214;28;20045;-69
2021/06/14 09:57:04;;;;;;;13.40;5.70;;;29.70;37.50;;;;;;5037924;28;20033;-72
2021/06/14 09:59:40;;;;;;;11.30;5.70;;;29.90;36.00;;;;;;5035618;28;20422;-70
2021/06/14 10:02:17;;;;;;;10.15;5.38;;;29.60;35.90;;;;;;5034691;28;20033;-69
2021/06/14 10:04:54;;;;;;;14.18;5.18;;;29.30;37.30;;;;;;5042201;28;20499;-71
2021/06/14 10:07:21;;;;;;;13.15;5.15;;;29.50;37.00;;;;;;5041493;28;20029;-69
2021/06/14 10:09:49;;;;;;;11.20;5.20;;;29.60;36.70;;;;;;5042252;28;20530;-71
2021/06/14 10:12:26;;;;;;;12.38;4.97;;;29.60;35.90;;;;;;5036422;28;20029;-71
2021/06/14 10:14:57;;;;;;;11.40;5.75;;;29.90;36.50;;;;;;5038192;28;20048;-69
2021/06/14 10:17:34;;;;;;;13.68;5.95;;;30.10;35.90;;;;;;5038057;28;20033;-69
2021/06/14 10:20:22;;;;;;;11.65;5.55;;;30.10;34.60;;;;;;5036741;28;20036;-69
2021/06/14 10:22:49;;;;;;;15.93;5.85;;;30.00;34.80;;;;;;5036151;28;20979;-72
2021/06/14 10:25:16;;;;;;;12.88;5.53;;;30.00;36.70;;;;;;5048321;28;20041;-69
2021/06/14 10:27:43;;;;;;;13.10;5.35;;;29.80;36.80;;;;;;5036956;28;20060;-71
2021/06/14 10:30:12;;;;;;;14.95;5.55;;;30.00;36.40;;;;;;5037616;28;20443;-70
2021/06/14 10:32:40;;;;;;;11.57;4.97;;;30.30;34.80;;;;;;5036999;28;20098;-71
2021/06/14 10:35:09;;;;;;;8.52;4.20;;;29.80;35.70;;;;;;5038713;28;20046;-69
2021/06/14 10:37:48;;;;;;;10.45;5.07;;;29.80;35.40;;;;;;5037503;28;20384;-68
2021/06/14 10:40:16;;;;;;;11.30;4.65;;;30.10;34.50;;;;;;5036972;28;20049;-70
2021/06/14 10:42:45;;;;;;;11.68;4.95;;;29.60;35.90;;;;;;5037200;28;20063;-72
2021/06/14 10:45:11;;;;;;;10.10;5.22;;;29.80;36.50;;;;;;5039285;28;20048;-69
2021/06/14 10:47:40;;;;;;;11.25;5.18;;;30.10;34.60;;;;;;5039075;28;20052;-69
2021/06/14 10:50:07;;;;;;;9.88;4.47;;;29.70;35.40;;;;;;5038323;28;20036;-71
2021/06/14 10:52:40;;;;;;;10.38;3.90;;;29.20;35.10;;;;;;5039113;28;20044;-69
2021/06/14 10:55:12;;;;;;;10.18;4.18;;;29.40;34.80;;;;;;5035848;28;20036;-72
2021/06/14 10:57:39;;;;;;;7.70;4.28;;;30.00;34.10;;;;;;5037842;28;20373;-69
2021/06/14 11:00:21;;;;;;;8.77;3.75;;;30.30;34.60;;;;;;5035949;28;20095;-71
2021/06/14 11:03:12;;;;;;;8.45;4.22;;;30.30;33.90;;;;;;5038152;28;20091;-70
2021/06/14 11:05:46;;;;;;;11.35;5.13;;;30.40;33.70;;;;;;5037614;28;20133;-72
2021/06/14 11:08:16;;;;;;;9.93;4.68;;;30.30;34.40;;;;;;5038829;28;21254;-68
2021/06/14 11:10:43;;;;;;;8.95;4.30;;;30.30;34.20;;;;;;5034707;28;20041;-70
2021/06/14 11:13:14;;;;;;;9.18;3.70;;;30.00;34.10;;;;;;5037378;28;20041;-72
2021/06/14 11:15:47;;;;;;;10.70;4.22;;;30.50;33.50;;;;;;5035147;28;20064;-69
2021/06/14 11:18:23;;;;;;;7.18;3.53;;;30.40;32.40;;;;;;5038111;28;20041;-69
2021/06/14 11:20:52;;;;;;;8.55;3.75;;;30.30;33.40;;;;;;5036935;28;20084;-68
2021/06/14 11:23:26;;;;;;;8.30;3.53;;;30.70;31.10;;;;;;5037498;28;20132;-69
2021/06/14 11:25:53;;;;;;;7.90;3.85;;;31.00;31.40;;;;;;5036630;28;20025;-71
2021/06/14 11:28:40;;;;;;;11.52;3.88;;;30.70;32.00;;;;;;5036400;28;20660;-69
2021/06/14 11:31:18;;;;;;;7.93;3.88;;;30.30;32.90;;;;;;5035328;28;20464;-69
2021/06/14 11:33:45;;;;;;;8.30;4.18;;;30.10;32.60;;;;;;5038278;28;21100;-69
2021/06/14 11:36:19;;;;;;;8.73;4.07;;;30.20;32.80;;;;;;5038490;28;20039;-70
2021/06/14 11:38:46;;;;;;;8.98;4.10;;;30.50;33.50;;;;;;5037454;28;20032;-70
2021/06/14 11:41:12;;;;;;;8.63;3.75;;;30.20;33.80;;;;;;5038403;28;20032;-71
2021/06/14 11:43:37;;;;;;;10.02;4.38;;;30.10;33.80;;;;;;5040376;28;20304;-70
2021/06/14 11:46:18;;;;;;;12.35;4.72;;;30.50;33.60;;;;;;5038087;28;20029;-69
2021/06/14 11:48:48;;;;;;;11.98;4.15;;;30.70;32.00;;;;;;5042069;28;20110;-69
2021/06/14 11:51:20;;;;;;;9.98;4.43;;;31.10;32.90;;;;;;5039725;28;20048;-70
2021/06/14 11:53:53;;;;;;;9.32;3.90;;;31.00;33.50;;;;;;5041662;28;20056;-69
2021/06/14 11:56:23;;;;;;;12.80;4.43;;;31.20;32.70;;;;;;5040510;28;20079;-69
2021/06/14 11:58:53;;;;;;;12.32;3.88;;;31.10;32.80;;;;;;5040408;28;20403;-68
2021/06/14 12:01:29;;;;;;;8.20;4.07;;;31.00;32.60;;;;;;5037271;28;20033;-70
2021/06/14 12:03:56;;;;;;;10.50;4.05;;;31.30;32.10;;;;;;5040440;28;20032;-69
2021/06/14 12:06:23;;;;;;;8.27;3.92;;;31.00;32.50;;;;;;5041298;28;20120;-69
2021/06/14 12:08:49;;;;;;;9.63;4.28;;;31.20;31.50;;;;;;5040533;28;20033;-71
2021/06/14 12:11:14;;;;;;;8.25;4.05;;;31.30;31.50;;;;;;5041066;28;20028;-70
2021/06/14 12:13:40;;;;;;;10.88;4.07;;;30.90;32.30;;;;;;5040204;28;20033;-69
2021/06/14 12:16:06;;;;;;;9.95;3.67;;;31.00;32.90;;;;;;5041381;28;20547;-69
2021/06/14 12:18:32;;;;;;;8.13;3.80;;;31.10;32.70;;;;;;5040369;28;20025;-73
2021/06/14 12:21:04;;;;;;;8.40;3.70;;;30.80;32.20;;;;;;5039909;28;20128;-70
2021/06/14 12:23:36;;;;;;;8.02;3.97;;;30.80;33.30;;;;;;5039289;28;20056;-70
2021/06/14 12:26:12;;;;;;;8.30;3.67;;;31.10;32.70;;;;;;5042646;28;20033;-70
2021/06/14 12:28:40;;;;;;;8.85;4.15;;;31.40;31.80;;;;;;5040853;28;20037;-69
2021/06/14 12:31:11;;;;;;;12.00;4.38;;;31.30;31.60;;;;;;5040030;28;20040;-71
2021/06/14 12:33:40;;;;;;;7.00;4.10;;;30.80;31.90;;;;;;5041180;28;20048;-69
2021/06/14 12:36:07;;;;;;;7.32;3.83;;;30.50;32.40;;;;;;5041636;28;20191;-69
2021/06/14 12:38:33;;;;;;;9.43;3.92;;;30.30;33.00;;;;;;5040053;28;20033;-70
2021/06/14 12:41:01;;;;;;;8.93;3.97;;;30.50;33.90;;;;;;5040102;28;20037;-70
2021/06/14 12:43:34;;;;;;;10.13;4.30;;;30.70;33.20;;;;;;5041216;28;20056;-70
2021/06/14 12:46:00;;;;;;;11.15;4.25;;;30.50;32.70;;;;;;5041576;28;20451;-72